createdAt,value
2023-03-06T00:01:01.391Z,8.93
2023-03-06T00:04:04.055Z,8.80
2023-03-06T00:07:06.591Z,11.20
2023-03-06T00:10:13.908Z,8.65
2023-03-06T00:13:19.322Z,10.67
2023-03-06T00:16:21.892Z,12.00
2023-03-06T00:19:24.580Z,10.57
2023-03-06T00:22:27.112Z,8.32
2023-03-06T00:25:29.571Z,9.65
2023-03-06T00:28:32.691Z,9.17
2023-03-06T00:31:36.153Z,10.80
2023-03-06T00:34:39.165Z,11.60
2023-03-06T00:37:42.293Z,11.52
2023-03-06T00:40:44.880Z,11.40
2023-03-06T00:43:47.464Z,9.20
2023-03-06T00:46:49.969Z,11.80
2023-03-06T00:49:52.477Z,10.90
2023-03-06T00:52:55.983Z,9.27
2023-03-06T00:56:00.555Z,8.23
2023-03-06T00:59:03.030Z,8.97
2023-03-06T01:02:06.118Z,10.50
2023-03-06T01:05:09.561Z,14.00
2023-03-06T01:08:13.333Z,11.68
2023-03-06T01:11:15.864Z,11.98
2023-03-06T01:14:19.772Z,16.10
2023-03-06T01:17:22.298Z,12.70
2023-03-06T01:20:25.015Z,13.73
2023-03-06T01:23:27.672Z,11.77
2023-03-06T01:26:31.776Z,14.20
2023-03-06T01:29:34.279Z,12.50
2023-03-06T01:32:36.832Z,12.60
2023-03-06T01:35:39.626Z,13.40
2023-03-06T01:38:42.573Z,12.98
2023-03-06T01:41:45.826Z,10.70
2023-03-06T01:45:06.437Z,12.90
2023-03-06T01:48:10.597Z,12.90
2023-03-06T01:51:13.140Z,10.88
2023-03-06T01:54:32.550Z,13.30
2023-03-06T01:57:42.808Z,15.60
2023-03-06T02:00:45.793Z,14.93
2023-03-06T02:03:52.337Z,12.40
2023-03-06T02:06:55.740Z,12.20
2023-03-06T02:09:58.964Z,14.23
2023-03-06T02:13:01.921Z,15.25
2023-03-06T02:16:04.791Z,13.80
2023-03-06T02:19:14.246Z,15.63
2023-03-06T02:22:17.385Z,13.48
2023-03-06T02:25:31.684Z,14.15
2023-03-06T02:28:35.050Z,16.60
2023-03-06T02:31:37.979Z,13.60
2023-03-06T02:34:40.437Z,13.93
2023-03-06T02:37:43.541Z,13.48
2023-03-06T02:40:49.790Z,12.90
2023-03-06T02:43:53.265Z,14.57
2023-03-06T02:46:55.924Z,11.73
2023-03-06T02:49:58.577Z,12.27
2023-03-06T02:53:01.164Z,12.75
2023-03-06T02:56:06.752Z,11.32
2023-03-06T02:59:09.295Z,14.23
2023-03-06T03:02:12.215Z,11.47
2023-03-06T03:05:14.808Z,12.53
2023-03-06T03:08:20.001Z,12.88
2023-03-06T03:11:24.414Z,10.38
2023-03-06T03:14:27.594Z,10.93
2023-03-06T03:17:30.085Z,13.40
2023-03-06T03:20:32.722Z,12.33
2023-03-06T03:23:35.324Z,14.57
2023-03-06T03:26:37.923Z,10.38
2023-03-06T03:29:50.028Z,12.80
2023-03-06T03:32:52.860Z,10.37
2023-03-06T03:36:01.399Z,11.03
2023-03-06T03:39:05.306Z,9.85
2023-03-06T03:42:09.029Z,16.27
2023-03-06T03:45:12.332Z,11.10
2023-03-06T03:48:16.284Z,12.03
2023-03-06T03:51:19.958Z,14.13
2023-03-06T03:54:26.966Z,11.73
2023-03-06T03:57:30.634Z,11.07
2023-03-06T04:00:34.351Z,10.48
2023-03-06T04:03:45.181Z,14.27
2023-03-06T04:06:49.462Z,11.50
2023-03-06T04:09:53.825Z,13.15
2023-03-06T04:12:56.555Z,14.70
2023-03-06T04:15:59.798Z,13.93
2023-03-06T04:19:04.318Z,17.90
2023-03-06T04:22:07.443Z,17.17
2023-03-06T04:25:12.804Z,18.33
2023-03-06T04:28:16.281Z,12.57
2023-03-06T04:31:19.777Z,11.10
2023-03-06T04:34:22.531Z,10.10
2023-03-06T04:37:26.166Z,14.90
2023-03-06T04:40:33.568Z,14.05
2023-03-06T04:43:36.098Z,12.63
2023-03-06T04:46:38.730Z,12.32
2023-03-06T04:49:41.302Z,12.00
2023-03-06T04:52:44.054Z,8.90
2023-03-06T04:55:46.606Z,9.90
2023-03-06T04:58:52.129Z,7.00
2023-03-06T05:01:55.454Z,6.93
2023-03-06T05:04:58.076Z,11.63
2023-03-06T05:08:00.557Z,7.77
2023-03-06T05:11:03.847Z,8.90
2023-03-06T05:14:06.600Z,6.88
2023-03-06T05:17:09.295Z,9.85
2023-03-06T05:20:12.770Z,10.27
2023-03-06T05:23:15.394Z,10.53
2023-03-06T05:26:17.843Z,10.82
2023-03-06T05:29:20.800Z,13.40
2023-03-06T05:32:23.713Z,11.88
2023-03-06T05:35:26.770Z,23.27
2023-03-06T05:38:29.544Z,18.00
2023-03-06T05:41:32.553Z,18.45
2023-03-06T05:44:35.943Z,16.58
2023-03-06T05:47:38.585Z,16.23
2023-03-06T05:50:41.050Z,14.60
2023-03-06T05:53:43.790Z,11.73
2023-03-06T05:56:46.248Z,14.93
2023-03-06T05:59:50.209Z,11.98
2023-03-06T06:02:52.953Z,13.30
2023-03-06T06:05:55.490Z,8.10
2023-03-06T06:08:58.210Z,10.73
2023-03-06T06:12:03.711Z,9.98
2023-03-06T06:15:07.269Z,9.63
2023-03-06T06:18:09.766Z,16.92
2023-03-06T06:21:14.748Z,17.97
2023-03-06T06:24:19.576Z,19.20
2023-03-06T06:27:22.593Z,19.73
2023-03-06T06:30:25.639Z,22.65
2023-03-06T06:33:28.151Z,19.02
2023-03-06T06:36:30.720Z,13.70
2023-03-06T06:39:33.236Z,14.83
2023-03-06T06:42:39.839Z,15.80
2023-03-06T06:45:44.242Z,19.55
2023-03-06T06:48:54.730Z,17.45
2023-03-06T06:51:57.653Z,17.13
2023-03-06T06:55:00.320Z,15.83
2023-03-06T06:58:02.896Z,21.50
2023-03-06T07:01:08.921Z,18.35
2023-03-06T07:04:13.355Z,19.00
2023-03-06T07:07:16.653Z,17.20
2023-03-06T07:10:20.947Z,15.60
2023-03-06T07:13:25.304Z,20.67
2023-03-06T07:16:31.479Z,18.38
2023-03-06T07:19:34.782Z,15.23
2023-03-06T07:22:50.363Z,14.33
2023-03-06T07:25:55.495Z,14.23
2023-03-06T07:28:58.966Z,15.98
2023-03-06T07:32:02.640Z,24.33
2023-03-06T07:35:22.456Z,27.27
2023-03-06T07:38:25.839Z,23.20
2023-03-06T07:41:28.857Z,17.33
2023-03-06T07:44:40.526Z,13.02
2023-03-06T07:47:51.035Z,12.25
2023-03-06T07:51:05.813Z,12.07
2023-03-06T07:54:08.556Z,15.17
2023-03-06T07:57:11.149Z,11.83
2023-03-06T08:00:16.119Z,13.30
2023-03-06T08:03:18.709Z,11.30
2023-03-06T08:06:27.679Z,12.65
2023-03-06T08:09:31.045Z,16.17
2023-03-06T08:12:33.720Z,23.80
2023-03-06T08:15:36.450Z,17.75
2023-03-06T08:18:44.964Z,17.88
2023-03-06T08:21:48.432Z,17.25
2023-03-06T08:24:54.974Z,17.07
2023-03-06T08:27:57.541Z,12.07
2023-03-06T08:31:10.038Z,12.48
2023-03-06T08:34:16.203Z,17.90
2023-03-06T08:37:18.815Z,15.68
2023-03-06T08:40:24.377Z,12.57
2023-03-06T08:43:28.680Z,15.40
2023-03-06T08:46:32.440Z,14.23
2023-03-06T08:49:36.102Z,16.40
2023-03-06T08:52:38.871Z,14.00
2023-03-06T08:55:41.400Z,13.07
2023-03-06T08:58:44.280Z,12.60
2023-03-06T09:01:46.948Z,12.95
2023-03-06T09:04:49.829Z,12.48
2023-03-06T09:07:53.549Z,14.43
2023-03-06T09:10:56.131Z,15.53
2023-03-06T09:13:59.355Z,13.97
2023-03-06T09:17:02.009Z,13.30
2023-03-06T09:20:06.337Z,14.63
2023-03-06T09:23:09.731Z,13.30
2023-03-06T09:26:12.806Z,17.27
2023-03-06T09:29:17.209Z,17.13
2023-03-06T09:32:24.804Z,12.27
2023-03-06T09:35:28.036Z,16.30
2023-03-06T09:38:30.982Z,12.57
2023-03-06T09:41:36.946Z,22.60
2023-03-06T09:44:41.258Z,15.33
2023-03-06T09:48:01.987Z,14.60
2023-03-06T09:51:36.284Z,12.80
2023-03-06T09:54:56.034Z,13.82
2023-03-06T09:58:21.943Z,17.93
2023-03-06T10:01:33.070Z,15.83
2023-03-06T10:04:44.168Z,18.02
2023-03-06T10:08:01.454Z,14.52
2023-03-06T10:11:09.965Z,15.43
2023-03-06T10:14:32.998Z,16.03
2023-03-06T10:17:38.683Z,15.87
2023-03-06T10:20:47.529Z,15.05
2023-03-06T10:23:58.683Z,23.98
2023-03-06T10:27:23.599Z,20.77
2023-03-06T10:30:38.482Z,17.30
2023-03-06T10:33:55.638Z,18.33
2023-03-06T10:37:02.568Z,12.45
2023-03-06T10:40:16.941Z,15.63
2023-03-06T10:43:19.593Z,15.30
2023-03-06T10:46:31.196Z,16.37
2023-03-06T10:49:36.836Z,12.93
2023-03-06T10:52:41.838Z,13.88
2023-03-06T10:55:52.367Z,13.82
2023-03-06T10:59:29.427Z,17.95
2023-03-06T11:02:39.599Z,24.70
2023-03-06T11:06:04.611Z,17.40
2023-03-06T11:09:20.257Z,22.17
2023-03-06T11:12:27.869Z,17.00
2023-03-06T11:15:33.068Z,24.33
2023-03-06T11:18:38.132Z,29.57
2023-03-06T11:21:40.700Z,18.13
2023-03-06T11:24:54.330Z,16.63
2023-03-06T11:28:08.264Z,25.58
2023-03-06T11:31:22.749Z,18.40
2023-03-06T11:34:41.965Z,33.47
2023-03-06T11:37:59.922Z,17.40
2023-03-06T11:41:14.093Z,17.58
2023-03-06T11:44:25.857Z,26.33
2023-03-06T11:47:42.704Z,18.70
2023-03-06T11:50:53.578Z,24.43
2023-03-06T11:54:00.935Z,23.73
2023-03-06T11:57:17.374Z,20.77
2023-03-06T12:00:50.450Z,17.45
2023-03-06T12:04:07.187Z,20.75
2023-03-06T12:07:31.412Z,21.97
2023-03-06T12:11:12.510Z,21.77
2023-03-06T12:14:50.393Z,18.05
2023-03-06T12:18:30.527Z,19.73
2023-03-06T12:21:57.738Z,14.00
2023-03-06T12:25:19.407Z,17.27
2023-03-06T12:28:54.394Z,14.00
2023-03-06T12:32:16.041Z,15.27
2023-03-06T12:35:59.059Z,18.63
2023-03-06T12:39:40.728Z,20.40
2023-03-06T12:43:02.163Z,18.30
2023-03-06T12:46:17.887Z,16.53
2023-03-06T12:49:31.844Z,18.20
2023-03-06T12:52:37.609Z,21.05
2023-03-06T12:55:44.308Z,16.67
2023-03-06T12:58:52.005Z,21.07
2023-03-06T13:02:35.452Z,15.47
2023-03-06T13:05:53.172Z,26.27
2023-03-06T13:09:17.266Z,22.85
2023-03-06T13:12:42.081Z,18.63
2023-03-06T13:15:47.114Z,21.83
2023-03-06T13:18:55.066Z,15.70
2023-03-06T13:21:57.963Z,17.80
2023-03-06T13:25:18.560Z,14.88
2023-03-06T13:28:45.707Z,15.00
2023-03-06T13:31:54.759Z,19.20
2023-03-06T13:34:57.663Z,14.40
2023-03-06T13:38:00.648Z,20.23
2023-03-06T13:41:25.170Z,18.35
2023-03-06T13:44:28.624Z,14.93
2023-03-06T13:48:22.631Z,16.30
2023-03-06T13:51:31.064Z,18.93
2023-03-06T13:55:11.158Z,19.30
2023-03-06T13:58:29.225Z,17.02
2023-03-06T14:01:43.691Z,16.70
2023-03-06T14:04:53.639Z,19.93
2023-03-06T14:08:32.008Z,17.27
2023-03-06T14:11:36.845Z,19.35
2023-03-06T14:14:44.231Z,20.08
2023-03-06T14:18:18.038Z,17.58
2023-03-06T14:21:54.830Z,12.63
2023-03-06T14:25:04.044Z,16.67
2023-03-06T14:28:14.052Z,16.95
2023-03-06T14:31:20.496Z,16.88
2023-03-06T14:34:28.697Z,19.48
2023-03-06T14:37:34.590Z,18.60
2023-03-06T14:40:43.959Z,16.00
2023-03-06T14:43:46.890Z,17.98
2023-03-06T14:46:55.305Z,16.25
2023-03-06T14:50:27.142Z,21.48
2023-03-06T14:53:34.036Z,17.13
2023-03-06T14:56:46.087Z,16.43
2023-03-06T14:59:48.546Z,15.90
2023-03-06T15:02:54.075Z,14.30
2023-03-06T15:05:57.277Z,45.78
2023-03-06T15:09:07.479Z,29.20
2023-03-06T15:12:23.698Z,23.03
2023-03-06T15:15:30.659Z,18.42
2023-03-06T15:18:40.657Z,17.77
2023-03-06T15:21:48.054Z,21.83
2023-03-06T15:24:51.538Z,18.30
2023-03-06T15:28:03.046Z,13.80
2023-03-06T15:31:23.565Z,19.50
2023-03-06T15:34:27.650Z,20.58
2023-03-06T15:37:30.105Z,20.88
2023-03-06T15:40:33.429Z,21.87
2023-03-06T15:43:39.703Z,18.97
2023-03-06T15:46:42.478Z,14.48
2023-03-06T15:49:45.028Z,20.55
2023-03-06T15:52:48.809Z,20.73
2023-03-06T15:55:52.667Z,26.13
2023-03-06T15:58:57.536Z,23.43
2023-03-06T16:02:04.325Z,24.55
2023-03-06T16:05:15.556Z,10.65
2023-03-06T16:08:18.031Z,28.20
2023-03-06T16:11:41.919Z,26.13
2023-03-06T16:14:47.908Z,27.83
2023-03-06T16:17:50.433Z,30.13
2023-03-06T16:20:53.099Z,28.15
2023-03-06T16:23:56.154Z,23.55
2023-03-06T16:27:00.633Z,25.67
2023-03-06T16:30:04.695Z,16.77
2023-03-06T16:33:11.328Z,22.33
2023-03-06T16:36:22.578Z,20.30
2023-03-06T16:39:25.110Z,26.67
2023-03-06T16:42:27.956Z,24.13
2023-03-06T16:45:30.874Z,17.17
2023-03-06T16:48:34.648Z,18.30
2023-03-06T16:51:39.897Z,17.50
2023-03-06T16:54:44.599Z,22.25
2023-03-06T16:57:47.562Z,18.47
2023-03-06T17:00:50.690Z,20.90
2023-03-06T17:03:53.571Z,29.73
2023-03-06T17:06:56.229Z,23.20
2023-03-06T17:09:59.024Z,20.40
2023-03-06T17:13:02.904Z,27.10
2023-03-06T17:16:06.462Z,24.90
2023-03-06T17:19:15.210Z,24.77
2023-03-06T17:22:19.160Z,18.02
2023-03-06T17:25:21.700Z,15.10
2023-03-06T17:28:24.309Z,19.37
2023-03-06T17:31:28.328Z,21.77
2023-03-06T17:34:31.241Z,21.90
2023-03-06T17:37:33.884Z,28.10
2023-03-06T17:40:36.476Z,19.50
2023-03-06T17:43:39.571Z,34.63
2023-03-06T17:46:43.504Z,28.43
2023-03-06T17:49:46.393Z,25.35
2023-03-06T17:52:49.274Z,31.40
2023-03-06T17:55:52.406Z,21.63
2023-03-06T17:58:55.496Z,19.90
2023-03-06T18:02:00.987Z,23.37
2023-03-06T18:05:04.313Z,20.65
2023-03-06T18:08:10.232Z,23.65
2023-03-06T18:11:14.077Z,26.58
2023-03-06T18:14:16.911Z,26.90
2023-03-06T18:17:20.511Z,29.10
2023-03-06T18:20:23.534Z,25.85
2023-03-06T18:23:27.073Z,27.13
2023-03-06T18:26:30.241Z,30.33
2023-03-06T18:29:33.134Z,26.00
2023-03-06T18:32:35.987Z,20.27
2023-03-06T18:35:38.497Z,29.05
2023-03-06T18:38:44.004Z,35.53
2023-03-06T18:41:46.838Z,32.92
2023-03-06T18:44:49.660Z,31.40
2023-03-06T18:47:52.526Z,24.07
2023-03-06T18:50:55.114Z,22.73
2023-03-06T18:53:59.115Z,22.90
2023-03-06T18:57:02.016Z,25.67
2023-03-06T19:00:06.416Z,35.13
2023-03-06T19:03:10.421Z,31.47
2023-03-06T19:06:15.457Z,33.10
2023-03-06T19:09:18.824Z,28.92
2023-03-06T19:12:21.789Z,32.08
2023-03-06T19:15:24.273Z,31.60
2023-03-06T19:18:28.352Z,30.03
2023-03-06T19:21:31.583Z,42.95
2023-03-06T19:24:34.639Z,36.28
2023-03-06T19:27:39.211Z,28.77
2023-03-06T19:30:41.940Z,26.47
2023-03-06T19:33:45.057Z,22.73
2023-03-06T19:36:50.140Z,28.15
2023-03-06T19:39:52.546Z,33.33
2023-03-06T19:42:55.686Z,51.08
2023-03-06T19:45:58.633Z,52.23
2023-03-06T19:49:10.030Z,69.87
2023-03-06T19:52:12.818Z,64.63
2023-03-06T19:55:15.713Z,56.55
2023-03-06T19:58:19.100Z,49.30
2023-03-06T20:01:24.932Z,46.67
2023-03-06T20:04:32.375Z,47.97
2023-03-06T20:07:35.624Z,44.92
2023-03-06T20:10:38.514Z,41.33
2023-03-06T20:13:47.237Z,43.42
2023-03-06T20:16:50.898Z,39.63
2023-03-06T20:19:54.071Z,39.83
2023-03-06T20:22:56.791Z,35.45
2023-03-06T20:26:05.115Z,31.02
2023-03-06T20:29:09.530Z,28.92
2023-03-06T20:32:13.477Z,37.03
2023-03-06T20:35:16.477Z,36.00
2023-03-06T20:38:19.304Z,41.95
2023-03-06T20:41:27.156Z,40.30
2023-03-06T20:44:30.073Z,38.28
2023-03-06T20:47:32.857Z,34.93
2023-03-06T20:50:35.595Z,41.50
2023-03-06T20:53:38.355Z,36.70
2023-03-06T20:56:42.688Z,43.92
2023-03-06T20:59:45.819Z,38.15
2023-03-06T21:02:48.516Z,32.90
2023-03-06T21:05:51.373Z,37.13
2023-03-06T21:08:55.858Z,36.60
2023-03-06T21:11:58.399Z,41.83
2023-03-06T21:15:01.018Z,48.95
2023-03-06T21:18:03.870Z,40.43
2023-03-06T21:21:09.828Z,47.17
2023-03-06T21:24:12.688Z,38.33
2023-03-06T21:27:15.410Z,42.95
2023-03-06T21:30:18.317Z,38.50
2023-03-06T21:33:21.246Z,40.53
2023-03-06T21:36:24.030Z,37.03
2023-03-06T21:39:26.922Z,41.05
2023-03-06T21:42:29.823Z,41.15
2023-03-06T21:45:32.569Z,33.90
2023-03-06T21:48:35.658Z,35.63
2023-03-06T21:51:38.615Z,33.15
2023-03-06T21:54:41.782Z,36.67
2023-03-06T21:57:49.323Z,29.17
2023-03-06T22:00:52.049Z,34.43
2023-03-06T22:03:58.579Z,28.77
2023-03-06T22:07:01.176Z,31.38
2023-03-06T22:10:05.664Z,25.63
2023-03-06T22:13:08.328Z,28.17
2023-03-06T22:16:12.067Z,30.23
2023-03-06T22:19:15.673Z,32.50
2023-03-06T22:22:18.329Z,28.67
2023-03-06T22:25:20.832Z,32.42
2023-03-06T22:28:23.730Z,31.07
2023-03-06T22:31:28.747Z,30.05
2023-03-06T22:34:31.856Z,29.67
2023-03-06T22:37:34.346Z,31.90
2023-03-06T22:40:38.137Z,27.52
2023-03-06T22:43:42.211Z,32.77
2023-03-06T22:46:45.921Z,29.85
2023-03-06T22:49:48.463Z,31.98
2023-03-06T22:52:50.942Z,28.77
2023-03-06T22:55:53.485Z,28.60
2023-03-06T22:58:57.888Z,23.87
2023-03-06T23:02:00.427Z,30.65
2023-03-06T23:05:03.796Z,32.42
2023-03-06T23:08:06.242Z,40.30
2023-03-06T23:11:11.092Z,36.27
2023-03-06T23:14:32.839Z,35.05
2023-03-06T23:17:54.296Z,33.80
2023-03-06T23:21:18.466Z,37.03
2023-03-06T23:24:39.298Z,36.47
2023-03-06T23:27:41.912Z,41.57
2023-03-06T23:30:44.887Z,41.53
2023-03-06T23:33:48.112Z,41.50
2023-03-06T23:36:51.606Z,40.33
2023-03-06T23:39:55.796Z,38.93
2023-03-06T23:42:58.481Z,40.08
2023-03-06T23:46:01.677Z,36.03
2023-03-06T23:49:04.844Z,39.30
2023-03-06T23:52:07.409Z,43.80
2023-03-06T23:55:10.392Z,42.93
2023-03-06T23:58:13.739Z,40.55
